Time;durP1;ratioP1;P1;durP2;ratioP2;P2;SDS_P1;SDS_P2;PMS_P1;PMS_P2;Temp;Humidity;BMP_temperature;BMP_pressure;BME280_temperature;BME280_humidity;BME280_pressure;Samples;Min_cycle;Max_cycle;Signal;HPM_P1;HPM_P2
2021/12/27 00:02:01;;;;;;;10.32;7.47;;;7.40;99.90;;;;;;5011773;28;20029;-71
2021/12/27 00:04:27;;;;;;;12.30;7.35;;;7.30;99.90;;;;;;4989171;28;20018;-71
2021/12/27 00:06:56;;;;;;;10.98;7.72;;;7.30;99.90;;;;;;5009926;28;20029;-71
2021/12/27 00:09:21;;;;;;;12.85;8.27;;;7.30;99.90;;;;;;5007560;28;20025;-70
2021/12/27 00:11:47;;;;;;;12.40;7.80;;;7.30;99.90;;;;;;5012998;28;20040;-72
2021/12/27 00:14:13;;;;;;;12.98;8.25;;;7.30;99.90;;;;;;5002636;28;20042;-71
2021/12/27 00:16:38;;;;;;;11.82;7.95;;;7.20;99.90;;;;;;5012661;28;20017;-72
2021/12/27 00:19:04;;;;;;;12.00;8.20;;;7.20;99.90;;;;;;5011051;28;20030;-72
2021/12/27 00:21:30;;;;;;;11.43;7.82;;;7.20;99.90;;;;;;4992188;28;20025;-73
2021/12/27 00:23:55;;;;;;;11.20;7.82;;;7.20;99.90;;;;;;5009678;28;20420;-72
2021/12/27 00:26:21;;;;;;;13.23;8.55;;;7.20;99.90;;;;;;4995557;28;20029;-72
2021/12/27 00:28:46;;;;;;;11.85;8.20;;;7.20;99.90;;;;;;4995149;28;20053;-72
2021/12/27 00:31:12;;;;;;;10.93;7.15;;;7.30;99.90;;;;;;5011346;28;20434;-72
2021/12/27 00:33:44;;;;;;;10.90;7.03;;;7.30;99.90;;;;;;5007715;28;20034;-72
2021/12/27 00:36:09;;;;;;;15.52;9.88;;;7.30;99.90;;;;;;5007129;28;20030;-71
2021/12/27 00:38:35;;;;;;;16.42;10.00;;;7.20;99.90;;;;;;5009895;28;20029;-71
2021/12/27 00:41:04;;;;;;;16.85;9.77;;;7.30;99.90;;;;;;5010587;28;20032;-71
2021/12/27 00:43:30;;;;;;;17.88;10.27;;;7.20;99.90;;;;;;5008718;28;20025;-71
2021/12/27 00:45:55;;;;;;;15.45;9.98;;;7.20;99.90;;;;;;4990591;28;20032;-71
2021/12/27 00:48:21;;;;;;;14.52;9.40;;;7.20;99.90;;;;;;5004153;28;20109;-71
2021/12/27 00:50:47;;;;;;;13.63;8.48;;;7.20;99.90;;;;;;5007921;28;20041;-71
2021/12/27 00:53:13;;;;;;;12.02;8.02;;;7.10;99.90;;;;;;5011560;28;20026;-70
2021/12/27 00:55:39;;;;;;;11.65;8.20;;;7.20;99.90;;;;;;4998381;28;20171;-70
2021/12/27 00:58:05;;;;;;;10.82;7.60;;;7.10;99.90;;;;;;4997946;28;20132;-71
2021/12/27 01:00:31;;;;;;;10.75;6.60;;;7.20;99.90;;;;;;5010722;28;20025;-71
2021/12/27 01:02:57;;;;;;;11.27;7.25;;;7.20;99.90;;;;;;5008325;28;20104;-71
2021/12/27 01:05:25;;;;;;;8.35;5.88;;;7.20;99.90;;;;;;5010232;28;20021;-71
2021/12/27 01:07:51;;;;;;;7.93;4.97;;;7.20;99.90;;;;;;5007713;28;20061;-71
2021/12/27 01:10:38;;;;;;;7.93;4.10;;;7.20;99.90;;;;;;4985891;28;20030;-71
2021/12/27 01:13:16;;;;;;;3.85;2.85;;;7.10;99.90;;;;;;5009571;28;20539;-71
2021/12/27 01:15:48;;;;;;;5.53;3.20;;;7.00;99.90;;;;;;5008438;28;20443;-71
2021/12/27 01:18:16;;;;;;;4.50;3.00;;;7.00;99.90;;;;;;5014288;28;20038;-71
2021/12/27 01:20:43;;;;;;;3.38;2.35;;;7.00;99.90;;;;;;5006070;28;20022;-72
2021/12/27 01:23:09;;;;;;;3.70;2.10;;;6.90;99.90;;;;;;5011441;28;20014;-71
2021/12/27 01:25:35;;;;;;;4.53;2.15;;;6.90;99.90;;;;;;4997580;28;20021;-71
2021/12/27 01:28:01;;;;;;;5.55;3.20;;;6.90;99.90;;;;;;5019094;28;20018;-71
2021/12/27 01:30:26;;;;;;;4.32;2.72;;;6.90;99.90;;;;;;5013986;28;20022;-70
2021/12/27 01:32:57;;;;;;;2.80;2.03;;;6.80;99.90;;;;;;4994165;28;20045;-71
2021/12/27 01:35:24;;;;;;;3.25;2.35;;;6.80;99.90;;;;;;5006032;28;20037;-71
2021/12/27 01:37:53;;;;;;;2.97;1.90;;;6.80;99.90;;;;;;4993189;28;20030;-72
2021/12/27 01:40:27;;;;;;;2.70;1.98;;;6.90;99.90;;;;;;5015231;28;20044;-72
2021/12/27 01:43:16;;;;;;;3.60;2.20;;;6.80;99.90;;;;;;5015141;28;20018;-72
2021/12/27 01:45:47;;;;;;;6.25;3.45;;;6.80;99.90;;;;;;5013765;28;20155;-71
2021/12/27 01:48:17;;;;;;;5.00;3.60;;;6.80;99.90;;;;;;5014094;28;20036;-72
2021/12/27 01:50:45;;;;;;;4.10;3.00;;;6.70;99.90;;;;;;5014118;28;20643;-71
2021/12/27 01:53:11;;;;;;;3.25;2.22;;;6.70;99.90;;;;;;5014539;28;20018;-72
2021/12/27 01:55:38;;;;;;;4.13;2.53;;;6.60;99.90;;;;;;4989239;28;20022;-71
2021/12/27 01:58:05;;;;;;;2.80;1.92;;;6.60;99.90;;;;;;5010655;28;20048;-72
2021/12/27 02:00:37;;;;;;;3.45;2.08;;;6.60;99.90;;;;;;4996879;28;20084;-72
2021/12/27 02:03:05;;;;;;;2.22;1.58;;;6.60;99.90;;;;;;5014615;28;20026;-72
2021/12/27 02:05:31;;;;;;;3.75;2.08;;;6.60;99.90;;;;;;5014294;28;20367;-72
2021/12/27 02:07:57;;;;;;;3.05;1.67;;;6.60;99.90;;;;;;5013579;28;20030;-72
2021/12/27 02:10:23;;;;;;;2.20;1.38;;;6.60;99.90;;;;;;5015577;28;20041;-72
2021/12/27 02:12:50;;;;;;;2.53;1.23;;;6.60;99.90;;;;;;5000173;28;20116;-72
2021/12/27 02:15:15;;;;;;;3.42;1.60;;;6.60;99.90;;;;;;5010082;28;20045;-72
2021/12/27 02:17:48;;;;;;;3.83;1.95;;;6.60;99.90;;;;;;5007857;28;20517;-72
2021/12/27 02:20:20;;;;;;;2.90;1.63;;;6.70;99.90;;;;;;5008586;28;20063;-70
2021/12/27 02:22:47;;;;;;;2.78;1.83;;;6.70;99.90;;;;;;5014576;28;20026;-70
2021/12/27 02:25:14;;;;;;;2.28;1.55;;;6.80;99.90;;;;;;5014724;28;20022;-71
2021/12/27 02:27:40;;;;;;;3.00;1.65;;;6.80;99.90;;;;;;5006627;28;20019;-71
2021/12/27 02:30:08;;;;;;;4.30;1.63;;;6.90;99.90;;;;;;4996326;28;20383;-71
2021/12/27 02:32:49;;;;;;;3.03;1.75;;;6.90;99.90;;;;;;5005932;28;20034;-72
2021/12/27 02:35:37;;;;;;;2.72;1.40;;;6.90;99.90;;;;;;4994207;28;20592;-73
2021/12/27 02:38:05;;;;;;;3.35;1.90;;;6.90;99.90;;;;;;5013723;28;20168;-72
2021/12/27 02:40:32;;;;;;;3.92;1.95;;;6.90;99.90;;;;;;4996484;28;20021;-74
2021/12/27 02:43:04;;;;;;;3.20;1.70;;;7.00;99.90;;;;;;5009235;28;20037;-72
2021/12/27 02:45:36;;;;;;;3.38;1.90;;;7.00;99.90;;;;;;4995428;28;20034;-73
2021/12/27 02:48:03;;;;;;;3.10;1.65;;;7.00;99.90;;;;;;4994173;28;20037;-74
2021/12/27 02:50:29;;;;;;;2.75;1.85;;;7.00;99.90;;;;;;5003681;28;20038;-72
2021/12/27 02:52:55;;;;;;;2.63;1.70;;;7.00;99.90;;;;;;4991890;28;20034;-72
2021/12/27 02:55:21;;;;;;;2.00;1.20;;;7.00;99.90;;;;;;5009363;28;20517;-76
2021/12/27 02:57:50;;;;;;;2.42;1.38;;;7.00;99.90;;;;;;4992952;28;20022;-74
2021/12/27 03:00:27;;;;;;;2.30;1.73;;;7.10;99.90;;;;;;4998200;28;20528;-76
2021/12/27 03:02:53;;;;;;;2.90;1.80;;;7.10;99.90;;;;;;5007024;28;20022;-74
2021/12/27 03:05:20;;;;;;;3.17;1.85;;;7.10;99.90;;;;;;4993641;28;20026;-74
2021/12/27 03:07:48;;;;;;;3.33;1.70;;;7.10;99.90;;;;;;5011858;28;20022;-75
2021/12/27 03:10:16;;;;;;;2.92;1.30;;;7.10;99.90;;;;;;5013723;28;20061;-75
2021/12/27 03:12:43;;;;;;;2.67;1.30;;;7.20;99.90;;;;;;5015828;28;20022;-73
2021/12/27 03:15:14;;;;;;;1.88;1.10;;;7.10;99.90;;;;;;5007406;28;20403;-73
2021/12/27 03:17:42;;;;;;;2.47;1.52;;;7.20;99.90;;;;;;4986779;28;20049;-73
2021/12/27 03:20:12;;;;;;;2.35;1.27;;;7.10;99.90;;;;;;5005472;28;20094;-72
2021/12/27 03:22:40;;;;;;;2.33;1.58;;;7.10;99.90;;;;;;5010031;28;20022;-74
2021/12/27 03:25:12;;;;;;;2.05;1.05;;;7.20;99.90;;;;;;5013693;28;20064;-74
2021/12/27 03:27:38;;;;;;;1.75;1.23;;;7.20;99.90;;;;;;5011820;28;20022;-73
2021/12/27 03:30:08;;;;;;;2.20;1.33;;;7.20;99.90;;;;;;5012927;28;20041;-73
2021/12/27 03:32:37;;;;;;;2.20;1.33;;;7.20;99.90;;;;;;5005455;28;20387;-74
2021/12/27 03:35:12;;;;;;;2.83;1.73;;;7.20;99.90;;;;;;5005588;28;20034;-74
2021/12/27 03:37:47;;;;;;;2.28;1.10;;;7.20;99.90;;;;;;5012265;28;20064;-73
2021/12/27 03:40:15;;;;;;;2.90;1.70;;;7.20;99.90;;;;;;5006174;28;20426;-73
2021/12/27 03:42:41;;;;;;;2.10;1.40;;;7.20;99.90;;;;;;5007183;28;20037;-73
2021/12/27 03:45:08;;;;;;;4.97;1.73;;;7.20;99.90;;;;;;4987857;28;20026;-74
2021/12/27 03:47:34;;;;;;;2.80;1.50;;;7.10;99.90;;;;;;5007443;28;20021;-75
2021/12/27 03:50:00;;;;;;;3.17;1.83;;;7.20;99.90;;;;;;5008918;28;20022;-75
2021/12/27 03:52:26;;;;;;;1.77;1.17;;;7.10;99.90;;;;;;5009035;28;20033;-74
2021/12/27 03:54:51;;;;;;;2.22;1.60;;;7.20;99.90;;;;;;5012576;28;20049;-74
2021/12/27 03:57:17;;;;;;;2.80;1.35;;;7.20;99.90;;;;;;5005834;28;20073;-74
2021/12/27 04:02:15;;;;;;;2.15;1.35;;;7.10;99.90;;;;;;5010882;28;20025;-74
2021/12/27 04:04:42;;;;;;;1.70;1.13;;;7.10;99.90;;;;;;5007037;28;20434;-73
2021/12/27 04:07:09;;;;;;;1.73;1.15;;;7.10;99.90;;;;;;4992457;28;20030;-73
2021/12/27 04:09:36;;;;;;;1.98;1.30;;;7.10;99.90;;;;;;4996112;28;20087;-74
2021/12/27 04:12:03;;;;;;;2.42;1.50;;;7.10;99.90;;;;;;4993467;28;20030;-74
2021/12/27 04:14:29;;;;;;;1.63;1.10;;;7.10;99.90;;;;;;4993552;28;20064;-75
2021/12/27 04:16:55;;;;;;;1.77;1.20;;;7.10;99.90;;;;;;5005048;28;20029;-74
2021/12/27 04:19:20;;;;;;;1.38;0.90;;;7.10;99.90;;;;;;5010752;28;20044;-72
2021/12/27 04:21:46;;;;;;;1.90;1.13;;;7.00;99.90;;;;;;4993901;28;20021;-72
2021/12/27 04:24:13;;;;;;;2.45;1.40;;;7.00;99.90;;;;;;5011782;28;20567;-73
2021/12/27 04:26:39;;;;;;;2.40;1.40;;;7.00;99.90;;;;;;5010056;28;20025;-72
2021/12/27 04:29:05;;;;;;;3.40;1.35;;;7.00;99.90;;;;;;5007860;28;20026;-73
2021/12/27 04:31:31;;;;;;;2.60;1.40;;;6.90;99.90;;;;;;5011871;28;20454;-74
2021/12/27 04:33:57;;;;;;;1.98;1.20;;;6.90;99.90;;;;;;5011494;28;20057;-73
2021/12/27 04:36:22;;;;;;;2.17;1.20;;;6.80;99.90;;;;;;4995790;28;20109;-73
2021/12/27 04:38:48;;;;;;;1.90;0.93;;;6.80;99.90;;;;;;4994611;28;20550;-72
2021/12/27 04:41:18;;;;;;;2.05;1.35;;;6.80;99.90;;;;;;5011276;28;20116;-73
2021/12/27 04:43:44;;;;;;;2.88;1.40;;;6.80;99.90;;;;;;5009865;28;20024;-73
2021/12/27 04:46:10;;;;;;;2.72;1.50;;;6.80;99.90;;;;;;5004170;28;20402;-73
2021/12/27 04:48:36;;;;;;;3.13;1.30;;;6.80;99.90;;;;;;5011992;28;20026;-74
2021/12/27 04:51:02;;;;;;;2.92;1.50;;;6.80;99.90;;;;;;5014643;28;20018;-73
2021/12/27 04:53:28;;;;;;;4.32;1.58;;;6.80;99.90;;;;;;4988528;28;20019;-75
2021/12/27 04:55:53;;;;;;;2.13;1.33;;;6.80;99.90;;;;;;4991285;28;20022;-72
2021/12/27 04:58:23;;;;;;;4.20;1.58;;;6.80;99.90;;;;;;5008245;28;20033;-73
2021/12/27 05:00:50;;;;;;;2.67;1.58;;;6.80;99.90;;;;;;4994739;28;20038;-73
2021/12/27 05:03:16;;;;;;;2.70;1.42;;;6.80;99.90;;;;;;5010420;28;20021;-72
2021/12/27 05:05:44;;;;;;;2.65;1.48;;;6.90;99.90;;;;;;5007352;28;20395;-72
2021/12/27 05:08:13;;;;;;;4.15;1.80;;;6.90;99.90;;;;;;5013968;28;20048;-72
2021/12/27 05:10:39;;;;;;;2.67;1.70;;;6.90;99.90;;;;;;4994053;28;20060;-72
2021/12/27 05:13:05;;;;;;;3.20;1.80;;;6.90;99.90;;;;;;4996100;28;21421;-71
2021/12/27 05:15:31;;;;;;;3.42;1.88;;;6.90;99.90;;;;;;4999133;28;20375;-72
2021/12/27 05:17:56;;;;;;;3.58;1.63;;;7.00;99.90;;;;;;5018717;28;20030;-72
2021/12/27 05:20:22;;;;;;;4.63;1.92;;;7.00;99.90;;;;;;5012410;28;20049;-71
2021/12/27 05:22:48;;;;;;;3.45;1.63;;;7.00;99.90;;;;;;4997719;28;20406;-74
2021/12/27 05:25:16;;;;;;;2.97;2.30;;;7.00;99.90;;;;;;5011911;28;20022;-74
2021/12/27 05:27:45;;;;;;;2.88;1.95;;;7.00;99.90;;;;;;5013998;28;20054;-74
2021/12/27 05:30:12;;;;;;;2.92;1.60;;;7.00;99.90;;;;;;5009223;28;20387;-73
2021/12/27 05:32:41;;;;;;;2.78;1.80;;;7.00;99.90;;;;;;5014762;28;20038;-73
2021/12/27 05:35:08;;;;;;;3.75;1.80;;;7.00;99.90;;;;;;5013437;28;20052;-73
2021/12/27 05:37:34;;;;;;;3.60;2.03;;;7.00;99.90;;;;;;4998742;28;20041;-73
2021/12/27 05:40:04;;;;;;;2.83;1.88;;;7.00;99.90;;;;;;4992651;28;20493;-75
2021/12/27 05:42:34;;;;;;;3.30;2.10;;;7.00;99.90;;;;;;5008000;28;20026;-73
2021/12/27 05:45:06;;;;;;;4.30;2.28;;;6.90;99.90;;;;;;5011715;28;20097;-74
2021/12/27 05:47:31;;;;;;;3.83;2.38;;;6.90;99.90;;;;;;4999760;28;20029;-73
2021/12/27 05:49:57;;;;;;;3.15;2.17;;;6.90;99.90;;;;;;4990647;28;20040;-72
2021/12/27 05:52:29;;;;;;;3.28;2.08;;;6.80;99.90;;;;;;5012335;28;20112;-73
2021/12/27 05:54:54;;;;;;;3.15;2.20;;;6.70;99.90;;;;;;5013794;28;20076;-74
2021/12/27 05:57:20;;;;;;;4.50;2.45;;;6.70;99.90;;;;;;5016051;28;20033;-73
2021/12/27 05:59:46;;;;;;;3.90;2.35;;;6.70;99.90;;;;;;5007153;28;20037;-73
2021/12/27 06:02:12;;;;;;;4.03;2.30;;;6.70;99.90;;;;;;5000871;28;20479;-73
2021/12/27 06:04:37;;;;;;;3.15;1.92;;;6.70;99.90;;;;;;5001051;28;20084;-73
2021/12/27 06:07:03;;;;;;;3.38;2.15;;;6.60;99.90;;;;;;5022849;28;20108;-74
2021/12/27 06:09:29;;;;;;;4.28;2.60;;;6.60;99.90;;;;;;5006553;28;20038;-72
2021/12/27 06:11:55;;;;;;;4.93;2.92;;;6.60;99.90;;;;;;4992149;28;20029;-73
2021/12/27 06:14:20;;;;;;;5.75;2.80;;;6.60;99.90;;;;;;5013862;28;20049;-72
2021/12/27 06:16:49;;;;;;;3.92;2.63;;;6.50;99.90;;;;;;4999606;28;20112;-73
2021/12/27 06:19:15;;;;;;;4.38;2.05;;;6.50;99.90;;;;;;4994781;28;20510;-73
2021/12/27 06:21:40;;;;;;;5.43;2.60;;;6.50;99.90;;;;;;5013390;28;20021;-73
2021/12/27 06:24:06;;;;;;;3.88;2.28;;;6.40;99.90;;;;;;5010799;28;20101;-73
2021/12/27 06:26:32;;;;;;;4.55;2.78;;;6.50;99.90;;;;;;5012149;28;20676;-74
2021/12/27 06:28:57;;;;;;;5.43;2.78;;;6.40;99.90;;;;;;5008641;28;20049;-68
2021/12/27 06:31:23;;;;;;;4.00;2.45;;;6.40;99.90;;;;;;5006728;28;20092;-68
2021/12/27 06:33:49;;;;;;;4.78;2.65;;;6.50;99.90;;;;;;4993004;28;20486;-68
2021/12/27 06:36:15;;;;;;;5.80;3.33;;;6.60;99.90;;;;;;5010574;28;20034;-72
2021/12/27 06:38:44;;;;;;;5.20;2.78;;;6.60;99.90;;;;;;4992456;28;20121;-73
2021/12/27 06:41:09;;;;;;;4.80;2.60;;;6.50;99.90;;;;;;5007947;28;20025;-72
2021/12/27 06:43:35;;;;;;;7.97;3.53;;;6.50;99.90;;;;;;5012387;28;20478;-72
2021/12/27 06:46:01;;;;;;;5.63;3.58;;;6.40;99.90;;;;;;4998483;28;20501;-72
2021/12/27 06:48:27;;;;;;;6.38;3.38;;;6.40;99.90;;;;;;5011418;28;20025;-71
2021/12/27 06:50:53;;;;;;;6.60;3.47;;;6.40;99.90;;;;;;5006374;28;20037;-72
2021/12/27 06:53:19;;;;;;;5.78;2.38;;;6.30;99.90;;;;;;5004225;28;20022;-72
2021/12/27 06:55:51;;;;;;;6.45;3.28;;;6.30;99.90;;;;;;5013184;28;20455;-73
2021/12/27 06:58:17;;;;;;;6.30;2.70;;;6.20;99.90;;;;;;5014221;28;20144;-74
2021/12/27 07:00:43;;;;;;;6.20;3.47;;;6.20;99.90;;;;;;5012319;28;20050;-73
2021/12/27 07:03:10;;;;;;;6.20;3.47;;;6.20;99.90;;;;;;5006355;28;20073;-72
2021/12/27 07:05:35;;;;;;;6.28;3.55;;;6.20;99.90;;;;;;5007521;28;20029;-71
2021/12/27 07:08:01;;;;;;;6.07;2.97;;;6.20;99.90;;;;;;5003510;28;20400;-74
2021/12/27 07:10:26;;;;;;;6.82;3.97;;;6.20;99.90;;;;;;5012941;28;20440;-74
2021/12/27 07:12:52;;;;;;;6.13;3.53;;;6.20;99.90;;;;;;5011625;28;20037;-72
2021/12/27 07:15:18;;;;;;;7.35;3.80;;;6.20;99.90;;;;;;5010141;28;20156;-74
2021/12/27 07:17:43;;;;;;;7.53;4.40;;;6.20;99.90;;;;;;5008334;28;20118;-75
2021/12/27 07:20:10;;;;;;;7.35;4.05;;;6.20;99.90;;;;;;5008134;28;20455;-74
2021/12/27 07:22:36;;;;;;;8.85;3.83;;;6.20;99.90;;;;;;4997458;28;20022;-74
2021/12/27 07:25:03;;;;;;;7.10;4.18;;;6.20;99.90;;;;;;5007648;28;20026;-75
2021/12/27 07:27:29;;;;;;;6.47;3.92;;;6.10;99.90;;;;;;4995741;28;20026;-75
2021/12/27 07:29:55;;;;;;;6.43;4.07;;;6.10;99.90;;;;;;5019945;28;20026;-75
2021/12/27 07:32:20;;;;;;;6.80;4.20;;;6.10;99.90;;;;;;5012436;28;20037;-75
2021/12/27 07:34:48;;;;;;;7.63;4.75;;;6.10;99.90;;;;;;4971981;28;20052;-75
2021/12/27 07:37:15;;;;;;;7.82;4.20;;;6.00;99.90;;;;;;5018617;23;20045;-72
2021/12/27 07:39:42;;;;;;;10.38;6.25;;;6.00;99.90;;;;;;5011561;28;20117;-72
2021/12/27 07:42:08;;;;;;;11.73;7.05;;;5.90;99.90;;;;;;5018815;28;20030;-72
2021/12/27 07:44:33;;;;;;;16.33;7.43;;;5.70;99.90;;;;;;5011771;28;20048;-73
2021/12/27 07:46:59;;;;;;;16.60;8.60;;;5.60;99.90;;;;;;5013454;28;20030;-75
2021/12/27 07:49:25;;;;;;;21.33;9.75;;;5.50;99.90;;;;;;5009645;28;20393;-73
2021/12/27 07:51:50;;;;;;;22.33;8.75;;;5.40;99.90;;;;;;5016695;28;20033;-70
2021/12/27 07:54:16;;;;;;;23.92;9.13;;;5.30;99.90;;;;;;5012214;28;20045;-71
2021/12/27 07:56:42;;;;;;;12.43;7.97;;;5.20;99.90;;;;;;5011857;28;20034;-73
2021/12/27 07:59:09;;;;;;;16.77;8.38;;;5.10;99.90;;;;;;5011004;28;20028;-72
2021/12/27 08:01:37;;;;;;;13.90;7.40;;;5.10;99.90;;;;;;5009106;28;20037;-71
2021/12/27 08:04:05;;;;;;;11.50;6.80;;;5.00;99.90;;;;;;5012590;28;20075;-71
2021/12/27 08:06:31;;;;;;;13.38;8.15;;;5.00;99.90;;;;;;5012188;28;20022;-73
2021/12/27 08:08:57;;;;;;;13.77;7.45;;;5.10;99.90;;;;;;5011600;28;20091;-72
2021/12/27 08:11:24;;;;;;;11.90;6.53;;;5.10;99.90;;;;;;5012374;28;20041;-72
2021/12/27 08:13:51;;;;;;;10.50;6.22;;;5.10;99.90;;;;;;5012825;28;20474;-70
2021/12/27 08:16:17;;;;;;;10.35;6.30;;;5.20;99.90;;;;;;5019516;28;20080;-72
2021/12/27 08:18:46;;;;;;;9.52;5.40;;;5.20;99.90;;;;;;5020744;28;20057;-72
2021/12/27 08:21:13;;;;;;;12.95;5.72;;;5.30;99.90;;;;;;5011785;28;20025;-71
2021/12/27 08:23:39;;;;;;;11.80;6.03;;;5.30;99.90;;;;;;5011065;28;20027;-72
2021/12/27 08:26:07;;;;;;;8.38;5.45;;;5.30;99.90;;;;;;5012474;28;20025;-71
2021/12/27 08:28:36;;;;;;;11.27;6.15;;;5.40;99.90;;;;;;5011357;28;20026;-71
2021/12/27 08:31:02;;;;;;;11.23;5.45;;;5.40;99.90;;;;;;5010234;28;20026;-71
2021/12/27 08:33:30;;;;;;;10.68;6.28;;;5.50;99.90;;;;;;5008429;28;20038;-68
2021/12/27 08:35:56;;;;;;;9.70;5.95;;;5.60;99.90;;;;;;5012465;28;20026;-71
2021/12/27 08:38:22;;;;;;;9.43;6.18;;;5.70;99.90;;;;;;5013252;28;20026;-70
2021/12/27 08:40:50;;;;;;;10.13;6.05;;;5.70;99.90;;;;;;5013363;28;20061;-70
2021/12/27 08:43:16;;;;;;;9.38;5.70;;;5.80;99.90;;;;;;5013073;28;20060;-73
2021/12/27 08:45:42;;;;;;;13.15;6.13;;;5.90;99.90;;;;;;5019114;28;20057;-73
2021/12/27 08:48:07;;;;;;;9.95;5.35;;;6.00;99.90;;;;;;5015957;28;20072;-73
2021/12/27 08:50:33;;;;;;;10.27;5.28;;;6.00;99.90;;;;;;5023931;28;20030;-72
2021/12/27 08:52:59;;;;;;;6.90;4.20;;;6.10;99.90;;;;;;5010121;28;20022;-72
2021/12/27 08:55:25;;;;;;;5.90;3.90;;;6.20;99.90;;;;;;5018966;28;20036;-73
2021/12/27 08:57:50;;;;;;;6.28;3.95;;;6.30;99.90;;;;;;5015857;28;20029;-75
2021/12/27 09:00:17;;;;;;;8.02;3.78;;;6.40;99.90;;;;;;5015206;28;20033;-74
2021/12/27 09:02:45;;;;;;;8.35;3.45;;;6.50;99.90;;;;;;5015602;28;20109;-73
2021/12/27 09:05:11;;;;;;;7.07;4.05;;;6.60;99.90;;;;;;5010482;28;20105;-74
2021/12/27 09:07:36;;;;;;;6.57;3.72;;;6.70;99.90;;;;;;5017879;28;20053;-74
2021/12/27 09:10:04;;;;;;;8.50;3.58;;;6.80;99.90;;;;;;5030119;28;20034;-73
2021/12/27 09:12:30;;;;;;;7.05;4.13;;;6.90;99.90;;;;;;5020496;28;20029;-72
2021/12/27 09:14:55;;;;;;;6.75;3.28;;;6.90;99.90;;;;;;5018207;28;20026;-74
2021/12/27 09:17:21;;;;;;;7.45;4.07;;;7.00;99.90;;;;;;5032842;28;20036;-72
2021/12/27 09:19:47;;;;;;;6.32;3.67;;;7.00;99.90;;;;;;5019477;28;20119;-72
2021/12/27 09:22:15;;;;;;;7.50;3.75;;;7.10;99.90;;;;;;5014234;28;20033;-72
2021/12/27 09:24:41;;;;;;;6.88;3.80;;;7.10;99.90;;;;;;5015362;28;20153;-71
2021/12/27 09:27:07;;;;;;;7.72;4.10;;;7.20;99.90;;;;;;5015130;28;20109;-72
2021/12/27 09:29:32;;;;;;;7.55;3.63;;;7.20;99.90;;;;;;5010531;28;20125;-73
2021/12/27 09:31:58;;;;;;;7.75;3.60;;;7.30;99.90;;;;;;5015430;28;20061;-73
2021/12/27 09:34:24;;;;;;;6.85;4.00;;;7.40;99.90;;;;;;5018212;28;20037;-72
2021/12/27 09:36:49;;;;;;;6.95;3.95;;;7.40;99.90;;;;;;5013027;28;20033;-73
2021/12/27 09:39:15;;;;;;;6.13;3.17;;;7.60;99.90;;;;;;4963436;28;20556;-71
2021/12/27 09:41:41;;;;;;;5.03;3.03;;;7.70;99.90;;;;;;5016675;28;20112;-72
2021/12/27 09:44:07;;;;;;;9.93;4.30;;;7.70;99.90;;;;;;5028192;28;20080;-73
2021/12/27 09:46:33;;;;;;;6.57;3.38;;;7.70;99.90;;;;;;5014153;28;20037;-72
2021/12/27 09:49:03;;;;;;;6.50;3.75;;;7.80;99.90;;;;;;5019526;28;20026;-73
2021/12/27 09:51:30;;;;;;;6.57;3.55;;;7.80;99.90;;;;;;5003133;28;20081;-71
2021/12/27 09:53:56;;;;;;;6.75;3.28;;;7.80;99.90;;;;;;5007447;28;20076;-71
2021/12/27 09:56:22;;;;;;;6.70;3.47;;;7.90;99.90;;;;;;5013660;28;20553;-71
2021/12/27 09:58:48;;;;;;;5.65;3.38;;;7.80;99.90;;;;;;5009265;28;20038;-70
2021/12/27 10:01:14;;;;;;;5.63;2.92;;;7.90;99.90;;;;;;5013117;28;20051;-72
2021/12/27 10:03:53;;;;;;;6.13;3.67;;;7.90;99.90;;;;;;5016599;28;20022;-72
2021/12/27 10:06:20;;;;;;;5.00;2.97;;;7.90;99.90;;;;;;5011340;28;20065;-72
2021/12/27 10:08:53;;;;;;;4.20;2.75;;;8.00;99.90;;;;;;5012534;28;20386;-71
2021/12/27 10:11:20;;;;;;;5.75;3.05;;;8.00;99.90;;;;;;5022359;28;20537;-71
2021/12/27 10:14:07;;;;;;;4.78;2.70;;;8.00;99.90;;;;;;5015574;28;20378;-72
2021/12/27 10:16:39;;;;;;;5.78;3.28;;;8.00;99.90;;;;;;5012036;28;20026;-70
2021/12/27 10:19:07;;;;;;;5.55;3.00;;;8.00;99.90;;;;;;5012200;28;20034;-70
2021/12/27 10:21:34;;;;;;;5.70;3.63;;;8.10;99.90;;;;;;5015101;28;20037;-70
2021/12/27 10:24:28;;;;;;;6.30;3.58;;;8.10;99.90;;;;;;5011846;28;20089;-71
2021/12/27 10:26:56;;;;;;;7.47;3.83;;;8.00;99.90;;;;;;5005417;28;20490;-71
2021/12/27 10:29:34;;;;;;;7.38;4.28;;;8.10;99.90;;;;;;5019747;28;20462;-72
2021/12/27 10:32:09;;;;;;;6.88;3.35;;;8.10;99.90;;;;;;5012362;28;20080;-71
2021/12/27 10:34:36;;;;;;;4.82;3.13;;;8.10;99.90;;;;;;5009837;28;20026;-71
2021/12/27 10:37:22;;;;;;;7.57;3.97;;;8.10;99.90;;;;;;5013011;28;20533;-70
2021/12/27 10:39:48;;;;;;;7.10;3.90;;;8.20;99.90;;;;;;5015421;28;20030;-72
2021/12/27 10:42:24;;;;;;;9.55;4.20;;;8.20;99.90;;;;;;5010074;28;20044;-71
2021/12/27 10:44:53;;;;;;;8.38;4.20;;;8.30;99.90;;;;;;5012270;28;20026;-70
2021/12/27 10:47:41;;;;;;;7.93;4.30;;;8.30;99.90;;;;;;5012578;28;20026;-71
2021/12/27 10:50:09;;;;;;;6.88;3.90;;;8.30;99.90;;;;;;5010197;28;20065;-71
2021/12/27 10:52:52;;;;;;;6.13;3.88;;;8.30;99.90;;;;;;5013080;28;20040;-71
2021/12/27 10:55:22;;;;;;;7.13;4.20;;;8.30;99.90;;;;;;5016277;28;20727;-70
2021/12/27 10:57:49;;;;;;;6.10;3.70;;;8.30;99.90;;;;;;5006420;28;20438;-70
2021/12/27 11:00:25;;;;;;;8.00;4.40;;;8.40;99.90;;;;;;5015423;28;20393;-69
2021/12/27 11:02:51;;;;;;;6.30;3.35;;;8.30;99.90;;;;;;5009303;28;20128;-71
2021/12/27 11:05:24;;;;;;;7.05;3.08;;;8.30;99.90;;;;;;5010495;28;20122;-72
2021/12/27 11:07:59;;;;;;;6.10;2.90;;;8.30;99.90;;;;;;5010717;28;20029;-73
2021/12/27 11:10:25;;;;;;;5.50;3.38;;;8.30;99.90;;;;;;5015835;28;20105;-70
2021/12/27 11:12:51;;;;;;;7.45;3.20;;;8.30;99.90;;;;;;5011400;28;20554;-72
2021/12/27 11:15:17;;;;;;;5.53;3.10;;;8.30;99.90;;;;;;5010938;28;20030;-71
2021/12/27 11:17:44;;;;;;;7.30;4.18;;;8.40;99.90;;;;;;5016573;28;20034;-70
2021/12/27 11:20:12;;;;;;;5.80;3.50;;;8.40;99.90;;;;;;5011660;28;20048;-71
2021/12/27 11:22:44;;;;;;;4.82;2.80;;;8.50;99.90;;;;;;5012557;28;20556;-72
2021/12/27 11:25:32;;;;;;;6.38;3.35;;;8.60;99.90;;;;;;5008712;28;20068;-71
2021/12/27 11:27:59;;;;;;;6.18;2.80;;;8.70;99.90;;;;;;5008401;28;20034;-71
2021/12/27 11:30:29;;;;;;;4.95;2.97;;;8.80;99.90;;;;;;5014291;28;20395;-71
2021/12/27 11:33:05;;;;;;;5.43;3.05;;;8.90;99.90;;;;;;5008822;28;20026;-72
2021/12/27 11:35:38;;;;;;;5.80;2.88;;;9.00;99.90;;;;;;5019674;28;20026;-72
2021/12/27 11:38:05;;;;;;;9.63;2.90;;;9.10;99.90;;;;;;5012463;28;20026;-70
2021/12/27 11:40:45;;;;;;;6.78;3.30;;;9.20;99.90;;;;;;5011673;28;20072;-72
2021/12/27 11:43:11;;;;;;;11.98;4.97;;;9.20;99.90;;;;;;5012629;28;20026;-70
2021/12/27 11:45:50;;;;;;;5.97;3.47;;;9.20;99.90;;;;;;5002905;28;20143;-69
2021/12/27 11:48:19;;;;;;;6.93;3.42;;;9.20;99.90;;;;;;5009966;28;20026;-69
2021/12/27 11:51:15;;;;;;;5.13;3.38;;;9.20;99.90;;;;;;5009342;28;20083;-71
2021/12/27 11:53:41;;;;;;;4.65;3.38;;;9.10;99.90;;;;;;4989635;28;20052;-70
2021/12/27 11:56:11;;;;;;;7.78;3.25;;;9.10;99.90;;;;;;5007456;28;20027;-70
2021/12/27 11:58:45;;;;;;;5.93;3.33;;;9.20;99.90;;;;;;5010541;28;20026;-70
2021/12/27 12:01:20;;;;;;;5.97;2.53;;;9.20;99.90;;;;;;5005229;28;20084;-70
2021/12/27 12:03:46;;;;;;;5.40;3.20;;;9.20;99.90;;;;;;5009959;28;20407;-71
2021/12/27 12:06:36;;;;;;;4.88;2.35;;;9.30;99.90;;;;;;5010029;28;20029;-71
2021/12/27 12:09:10;;;;;;;3.35;2.15;;;9.30;99.90;;;;;;5012644;28;20078;-71
2021/12/27 12:11:36;;;;;;;4.65;2.60;;;9.30;99.90;;;;;;5006094;28;20087;-71
2021/12/27 12:14:24;;;;;;;5.93;3.13;;;9.40;99.90;;;;;;5014316;28;20026;-73
2021/12/27 12:16:50;;;;;;;4.88;2.53;;;9.40;99.90;;;;;;5002802;28;20364;-72
2021/12/27 12:19:16;;;;;;;4.90;2.30;;;9.40;99.90;;;;;;5007740;28;20087;-72
2021/12/27 12:21:44;;;;;;;6.15;2.45;;;9.40;99.90;;;;;;5007177;28;20029;-72
2021/12/27 12:24:13;;;;;;;4.28;2.60;;;9.40;99.90;;;;;;5008901;28;20026;-72
2021/12/27 12:26:54;;;;;;;6.10;2.83;;;9.40;99.90;;;;;;5005292;28;20044;-72
2021/12/27 12:29:20;;;;;;;6.78;2.83;;;9.40;99.90;;;;;;5001672;28;20038;-71
2021/12/27 12:31:47;;;;;;;6.20;2.78;;;9.50;99.90;;;;;;5012002;28;20444;-71
2021/12/27 12:34:18;;;;;;;6.93;3.33;;;9.50;99.90;;;;;;5013828;28;20502;-75
2021/12/27 12:36:50;;;;;;;5.65;3.10;;;9.50;99.90;;;;;;5007479;28;20493;-72
2021/12/27 12:39:17;;;;;;;6.95;3.15;;;9.60;99.90;;;;;;5017436;28;20160;-73
2021/12/27 12:41:43;;;;;;;7.63;2.88;;;9.60;99.90;;;;;;5010306;28;20022;-72
2021/12/27 12:44:09;;;;;;;4.10;2.60;;;9.70;99.90;;;;;;5008128;28;20075;-73
2021/12/27 12:46:36;;;;;;;8.02;3.40;;;9.70;99.90;;;;;;5009955;28;20411;-70
2021/12/27 12:49:08;;;;;;;5.30;2.90;;;9.70;99.90;;;;;;5014050;28;20030;-72
2021/12/27 12:51:38;;;;;;;9.20;2.47;;;9.70;99.90;;;;;;5010161;28;20034;-71
2021/12/27 12:54:07;;;;;;;6.07;2.50;;;9.80;99.90;;;;;;5021429;28;20033;-71
2021/12/27 12:56:36;;;;;;;6.20;2.58;;;9.80;99.90;;;;;;5019359;28;20493;-70
2021/12/27 12:59:03;;;;;;;5.25;2.80;;;9.90;99.90;;;;;;5008262;28;20038;-74
2021/12/27 13:01:28;;;;;;;6.05;2.53;;;9.90;99.90;;;;;;5012037;28;20030;-75
2021/12/27 13:03:57;;;;;;;8.73;3.28;;;9.90;99.90;;;;;;5004696;28;20022;-70